createdAt,value
2019-03-20T00:00:14.116Z,1026.44
2019-03-20T00:01:14.110Z,1026.49
2019-03-20T00:02:14.095Z,1026.48
2019-03-20T00:03:14.079Z,1026.52
2019-03-20T00:04:14.066Z,1026.55
2019-03-20T00:05:14.075Z,1026.52
2019-03-20T00:06:14.062Z,1026.50
2019-03-20T00:07:14.074Z,1026.50
2019-03-20T00:08:14.036Z,1026.51
2019-03-20T00:09:14.021Z,1026.56
2019-03-20T00:10:14.004Z,1026.59
2019-03-20T00:11:13.996Z,1026.58
2019-03-20T00:12:13.992Z,1026.56
2019-03-20T00:13:13.973Z,1026.55
2019-03-20T00:14:13.961Z,1026.57
2019-03-20T00:15:13.949Z,1026.54
2019-03-20T00:16:13.940Z,1026.58
2019-03-20T00:17:13.928Z,1026.54
2019-03-20T00:18:13.919Z,1026.58
2019-03-20T00:19:13.906Z,1026.58
2019-03-20T00:20:13.899Z,1026.58
2019-03-20T00:21:13.886Z,1026.52
2019-03-20T00:22:13.875Z,1026.53
2019-03-20T00:23:13.866Z,1026.50
2019-03-20T00:24:13.855Z,1026.52
2019-03-20T00:25:13.864Z,1026.57
2019-03-20T00:26:13.831Z,1026.60
2019-03-20T00:27:13.820Z,1026.67
2019-03-20T00:28:13.809Z,1026.63
2019-03-20T00:29:13.800Z,1026.60
2019-03-20T00:30:13.789Z,1026.62
2019-03-20T00:31:13.779Z,1026.65
2019-03-20T00:32:13.764Z,1026.67
2019-03-20T00:33:13.755Z,1026.65
2019-03-20T00:34:13.745Z,1026.65
2019-03-20T00:35:13.737Z,1026.66
2019-03-20T00:36:13.725Z,1026.65
2019-03-20T00:37:13.714Z,1026.62
2019-03-20T00:38:13.702Z,1026.64
2019-03-20T00:39:13.690Z,1026.62
2019-03-20T00:40:13.691Z,1026.62
2019-03-20T00:41:13.668Z,1026.64
2019-03-20T00:42:13.658Z,1026.65
2019-03-20T00:43:13.649Z,1026.70
2019-03-20T00:44:13.635Z,1026.65
2019-03-20T00:45:13.629Z,1026.67
2019-03-20T00:46:13.613Z,1026.62
2019-03-20T00:47:13.608Z,1026.67
2019-03-20T00:48:13.592Z,1026.66
2019-03-20T00:49:13.583Z,1026.67
2019-03-20T00:50:13.570Z,1026.66
2019-03-20T00:51:13.566Z,1026.64
2019-03-20T00:52:13.550Z,1026.64
2019-03-20T00:53:13.539Z,1026.57
2019-03-20T00:54:13.530Z,1026.57
2019-03-20T00:55:13.517Z,1026.56
2019-03-20T00:56:13.503Z,1026.55
2019-03-20T00:57:13.495Z,1026.58
2019-03-20T00:58:13.487Z,1026.56
2019-03-20T00:59:13.472Z,1026.59
2019-03-20T01:00:13.459Z,1026.61
2019-03-20T01:01:13.451Z,1026.62
2019-03-20T01:02:13.439Z,1026.58
2019-03-20T01:03:13.429Z,1026.65
2019-03-20T01:04:13.416Z,1026.61
2019-03-20T01:05:13.405Z,1026.65
2019-03-20T01:06:13.394Z,1026.69
2019-03-20T01:07:13.387Z,1026.68
2019-03-20T01:08:13.383Z,1026.65
2019-03-20T01:09:13.361Z,1026.60
2019-03-20T01:10:13.357Z,1026.60
2019-03-20T01:11:13.344Z,1026.56
2019-03-20T01:12:13.328Z,1026.60
2019-03-20T01:13:13.320Z,1026.61
2019-03-20T01:14:13.307Z,1026.58
2019-03-20T01:15:13.296Z,1026.62
2019-03-20T01:16:13.285Z,1026.59
2019-03-20T01:17:13.293Z,1026.61
2019-03-20T01:18:13.263Z,1026.62
2019-03-20T01:19:13.254Z,1026.66
2019-03-20T01:20:13.247Z,1026.64
2019-03-20T01:21:13.230Z,1026.64
2019-03-20T01:22:13.222Z,1026.62
2019-03-20T01:23:13.213Z,1026.63
2019-03-20T01:24:13.197Z,1026.67
2019-03-20T01:25:13.183Z,1026.63
2019-03-20T01:26:13.174Z,1026.63
2019-03-20T01:27:13.165Z,1026.64
2019-03-20T01:28:13.151Z,1026.65
2019-03-20T01:29:13.139Z,1026.66
2019-03-20T01:30:13.129Z,1026.67
2019-03-20T01:31:13.119Z,1026.66
2019-03-20T01:32:13.106Z,1026.69
2019-03-20T01:33:13.097Z,1026.69
2019-03-20T01:34:13.088Z,1026.69
2019-03-20T01:35:23.329Z,1026.71
2019-03-20T01:36:13.061Z,1026.69
2019-03-20T01:37:13.052Z,1026.67
2019-03-20T01:38:13.043Z,1026.68
2019-03-20T01:39:13.030Z,1026.69
2019-03-20T01:40:13.020Z,1026.69
2019-03-20T01:41:13.008Z,1026.70
2019-03-20T01:42:12.996Z,1026.69
2019-03-20T01:43:12.984Z,1026.74
2019-03-20T01:44:12.974Z,1026.70
2019-03-20T01:45:13.010Z,1026.72
2019-03-20T01:46:12.951Z,1026.73
2019-03-20T01:47:12.944Z,1026.72
2019-03-20T01:48:12.925Z,1026.79
2019-03-20T01:49:12.916Z,1026.74
2019-03-20T01:50:12.908Z,1026.75
2019-03-20T01:51:12.897Z,1026.73
2019-03-20T01:52:12.885Z,1026.70
2019-03-20T01:53:12.873Z,1026.72
2019-03-20T01:54:12.862Z,1026.72
2019-03-20T01:55:12.851Z,1026.74
2019-03-20T01:56:12.837Z,1026.76
2019-03-20T01:57:12.829Z,1026.73
2019-03-20T01:58:12.828Z,1026.74
2019-03-20T01:59:12.805Z,1026.76
2019-03-20T02:00:12.796Z,1026.76
2019-03-20T02:01:12.782Z,1026.76
2019-03-20T02:02:12.773Z,1026.77
2019-03-20T02:03:12.764Z,1026.77
2019-03-20T02:04:12.751Z,1026.73
2019-03-20T02:05:12.741Z,1026.76
2019-03-20T02:06:12.726Z,1026.77
2019-03-20T02:07:12.715Z,1026.76
2019-03-20T02:08:12.704Z,1026.76
2019-03-20T02:09:12.695Z,1026.78
2019-03-20T02:10:12.681Z,1026.76
2019-03-20T02:11:12.671Z,1026.76
2019-03-20T02:12:12.661Z,1026.78
2019-03-20T02:13:12.647Z,1026.81
2019-03-20T02:14:12.636Z,1026.82
2019-03-20T02:15:12.625Z,1026.79
2019-03-20T02:16:12.613Z,1026.75
2019-03-20T02:17:12.603Z,1026.81
2019-03-20T02:18:12.591Z,1026.81
2019-03-20T02:19:12.583Z,1026.83
2019-03-20T02:20:12.566Z,1026.86
2019-03-20T02:21:12.555Z,1026.85
2019-03-20T02:22:12.542Z,1026.86
2019-03-20T02:23:12.531Z,1026.85
2019-03-20T02:24:12.524Z,1026.86
2019-03-20T02:25:12.512Z,1026.84
2019-03-20T02:26:12.501Z,1026.86
2019-03-20T02:27:12.488Z,1026.83
2019-03-20T02:28:12.476Z,1026.82
2019-03-20T02:29:12.467Z,1026.83
2019-03-20T02:30:12.457Z,1026.83
2019-03-20T02:31:12.443Z,1026.81
2019-03-20T02:32:12.431Z,1026.86
2019-03-20T02:33:12.435Z,1026.84
2019-03-20T02:34:12.411Z,1026.80
2019-03-20T02:35:12.397Z,1026.82
2019-03-20T02:36:12.386Z,1026.82
2019-03-20T02:37:12.380Z,1026.83
2019-03-20T02:38:12.363Z,1026.79
2019-03-20T02:39:12.361Z,1026.80
2019-03-20T02:40:12.338Z,1026.78
2019-03-20T02:41:12.335Z,1026.77
2019-03-20T02:42:12.317Z,1026.77
2019-03-20T02:43:12.307Z,1026.80
2019-03-20T02:44:12.307Z,1026.79
2019-03-20T02:45:12.283Z,1026.85
2019-03-20T02:46:12.270Z,1026.84
2019-03-20T02:47:12.265Z,1026.87
2019-03-20T02:48:12.250Z,1026.87
2019-03-20T02:49:12.238Z,1026.87
2019-03-20T02:50:12.226Z,1026.87
2019-03-20T02:51:12.214Z,1026.90
2019-03-20T02:52:12.202Z,1026.91
2019-03-20T02:53:12.200Z,1026.90
2019-03-20T02:54:12.179Z,1026.87
2019-03-20T02:55:12.168Z,1026.89
2019-03-20T02:56:12.159Z,1026.88
2019-03-20T02:57:12.136Z,1026.89
2019-03-20T02:58:12.132Z,1026.90
2019-03-20T02:59:12.121Z,1026.93
2019-03-20T03:00:12.146Z,1026.95
2019-03-20T03:01:12.101Z,1026.99
2019-03-20T03:02:12.088Z,1026.98
2019-03-20T03:03:12.076Z,1027.04
2019-03-20T03:04:12.064Z,1027.04
2019-03-20T03:05:12.058Z,1027.06
2019-03-20T03:06:12.040Z,1027.05
2019-03-20T03:07:12.047Z,1027.00
2019-03-20T03:08:12.019Z,1026.98
2019-03-20T03:09:12.008Z,1026.98
2019-03-20T03:10:11.996Z,1026.98
2019-03-20T03:11:11.983Z,1027.00
2019-03-20T03:12:11.976Z,1027.00
2019-03-20T03:13:11.960Z,1027.01
2019-03-20T03:14:11.950Z,1027.00
2019-03-20T03:15:11.936Z,1026.95
2019-03-20T03:16:11.925Z,1027.00
2019-03-20T03:17:11.915Z,1027.03
2019-03-20T03:18:11.903Z,1027.01
2019-03-20T03:19:11.890Z,1027.03
2019-03-20T03:20:11.879Z,1027.04
2019-03-20T03:21:11.869Z,1027.08
2019-03-20T03:22:11.859Z,1027.07
2019-03-20T03:23:11.845Z,1027.10
2019-03-20T03:24:11.833Z,1027.10
2019-03-20T03:25:11.822Z,1027.08
2019-03-20T03:26:11.811Z,1027.05
2019-03-20T03:27:11.805Z,1027.05
2019-03-20T03:28:11.786Z,1027.02
2019-03-20T03:29:11.777Z,1027.01
2019-03-20T03:30:11.779Z,1027.04
2019-03-20T03:31:11.765Z,1027.03
2019-03-20T03:32:11.741Z,1027.02
2019-03-20T03:33:11.734Z,1027.04
2019-03-20T03:34:11.717Z,1027.00
2019-03-20T03:35:17.290Z,1027.02
2019-03-20T03:36:21.006Z,1026.98
2019-03-20T03:37:11.684Z,1027.01
2019-03-20T03:38:11.671Z,1027.06
2019-03-20T03:39:11.660Z,1027.07
2019-03-20T03:40:11.648Z,1027.05
2019-03-20T03:41:11.636Z,1027.05
2019-03-20T03:42:11.626Z,1027.07
2019-03-20T03:43:11.623Z,1027.08
2019-03-20T03:44:11.602Z,1027.09
2019-03-20T03:45:11.692Z,1027.10
2019-03-20T03:46:11.580Z,1027.15
2019-03-20T03:47:11.576Z,1027.14
2019-03-20T03:48:11.559Z,1027.13
2019-03-20T03:49:11.548Z,1027.14
2019-03-20T03:50:11.578Z,1027.16
2019-03-20T03:51:11.530Z,1027.13
2019-03-20T03:52:11.511Z,1027.16
2019-03-20T03:53:11.501Z,1027.18
2019-03-20T03:54:11.488Z,1027.15
2019-03-20T03:55:11.515Z,1027.15
2019-03-20T03:56:11.463Z,1027.14
2019-03-20T03:57:11.455Z,1027.13
2019-03-20T03:58:11.441Z,1027.15
2019-03-20T03:59:11.430Z,1027.15
2019-03-20T04:00:11.448Z,1027.15
2019-03-20T04:01:11.406Z,1027.17
2019-03-20T04:02:11.405Z,1027.13
2019-03-20T04:03:11.408Z,1027.16
2019-03-20T04:04:11.370Z,1027.18
2019-03-20T04:05:11.361Z,1027.18
2019-03-20T04:06:11.346Z,1027.21
2019-03-20T04:07:11.340Z,1027.19
2019-03-20T04:08:11.324Z,1027.17
2019-03-20T04:09:11.312Z,1027.16
2019-03-20T04:10:11.305Z,1027.21
2019-03-20T04:11:11.289Z,1027.19
2019-03-20T04:12:11.283Z,1027.26
2019-03-20T04:13:11.268Z,1027.23
2019-03-20T04:14:11.256Z,1027.24
2019-03-20T04:15:11.249Z,1027.23
2019-03-20T04:16:11.231Z,1027.22
2019-03-20T04:17:11.218Z,1027.23
2019-03-20T04:18:11.213Z,1027.20
2019-03-20T04:19:11.201Z,1027.20
2019-03-20T04:20:11.188Z,1027.18
2019-03-20T04:21:11.178Z,1027.20
2019-03-20T04:22:11.162Z,1027.24
2019-03-20T04:23:11.151Z,1027.26
2019-03-20T04:24:11.138Z,1027.24
2019-03-20T04:25:11.126Z,1027.24
2019-03-20T04:26:11.116Z,1027.26
2019-03-20T04:27:11.102Z,1027.26
2019-03-20T04:28:11.093Z,1027.29
2019-03-20T04:29:11.083Z,1027.26
2019-03-20T04:30:11.072Z,1027.33
2019-03-20T04:31:11.057Z,1027.33
2019-03-20T04:32:11.042Z,1027.31
2019-03-20T04:33:11.031Z,1027.32
2019-03-20T04:34:11.024Z,1027.33
2019-03-20T04:35:11.012Z,1027.34
2019-03-20T04:36:10.999Z,1027.35
2019-03-20T04:37:10.986Z,1027.36
2019-03-20T04:38:10.971Z,1027.37
2019-03-20T04:39:10.965Z,1027.32
2019-03-20T04:40:10.950Z,1027.38
2019-03-20T04:41:10.940Z,1027.42
2019-03-20T04:42:10.926Z,1027.43
2019-03-20T04:43:10.915Z,1027.42
2019-03-20T04:44:10.901Z,1027.49
2019-03-20T04:45:12.377Z,1027.47
2019-03-20T04:46:10.879Z,1027.48
2019-03-20T04:47:10.866Z,1027.46
2019-03-20T04:48:10.858Z,1027.46
2019-03-20T04:49:10.844Z,1027.49
2019-03-20T04:50:10.832Z,1027.48
2019-03-20T04:51:10.823Z,1027.48
2019-03-20T04:52:10.816Z,1027.47
2019-03-20T04:53:10.803Z,1027.46
2019-03-20T04:54:10.786Z,1027.45
2019-03-20T04:55:10.775Z,1027.49
2019-03-20T04:56:10.764Z,1027.47
2019-03-20T04:57:10.749Z,1027.46
2019-03-20T04:58:10.738Z,1027.48
2019-03-20T04:59:10.732Z,1027.50
2019-03-20T05:00:10.716Z,1027.51
2019-03-20T05:01:10.710Z,1027.47
2019-03-20T05:02:10.698Z,1027.46
2019-03-20T05:03:10.680Z,1027.49
2019-03-20T05:04:10.668Z,1027.52
2019-03-20T05:05:10.656Z,1027.53
2019-03-20T05:06:10.640Z,1027.53
2019-03-20T05:07:10.633Z,1027.60
2019-03-20T05:08:10.619Z,1027.62
2019-03-20T05:09:10.610Z,1027.62
2019-03-20T05:10:10.598Z,1027.64
2019-03-20T05:11:10.585Z,1027.61
2019-03-20T05:12:10.572Z,1027.61
2019-03-20T05:13:10.564Z,1027.64
2019-03-20T05:14:12.365Z,1027.63
2019-03-20T05:15:10.539Z,1027.56
2019-03-20T05:16:10.529Z,1027.57
2019-03-20T05:17:10.514Z,1027.56
2019-03-20T05:18:10.502Z,1027.59
2019-03-20T05:19:10.494Z,1027.62
2019-03-20T05:20:10.478Z,1027.65
2019-03-20T05:21:10.468Z,1027.65
2019-03-20T05:22:10.460Z,1027.65
2019-03-20T05:23:10.441Z,1027.64
2019-03-20T05:24:10.431Z,1027.64
2019-03-20T05:25:10.423Z,1027.67
2019-03-20T05:26:10.422Z,1027.67
2019-03-20T05:27:10.398Z,1027.68
2019-03-20T05:28:10.387Z,1027.68
2019-03-20T05:29:10.376Z,1027.70
2019-03-20T05:30:10.362Z,1027.70
2019-03-20T05:31:10.349Z,1027.70
2019-03-20T05:32:10.337Z,1027.72
2019-03-20T05:33:10.323Z,1027.75
2019-03-20T05:34:10.314Z,1027.74
2019-03-20T05:35:10.301Z,1027.79
2019-03-20T05:36:10.291Z,1027.76
2019-03-20T05:37:10.962Z,1027.73
2019-03-20T05:38:10.265Z,1027.76
2019-03-20T05:39:10.251Z,1027.74
2019-03-20T05:40:10.242Z,1027.73
2019-03-20T05:41:10.234Z,1027.75
2019-03-20T05:42:10.236Z,1027.76
2019-03-20T05:43:10.209Z,1027.76
2019-03-20T05:44:10.195Z,1027.79
2019-03-20T05:45:10.184Z,1027.80
2019-03-20T05:46:10.174Z,1027.79
2019-03-20T05:47:10.161Z,1027.82
2019-03-20T05:48:10.151Z,1027.80
2019-03-20T05:49:10.142Z,1027.83
2019-03-20T05:50:10.127Z,1027.81
2019-03-20T05:51:10.117Z,1027.84
2019-03-20T05:52:10.106Z,1027.84
2019-03-20T05:53:10.096Z,1027.81
2019-03-20T05:54:10.082Z,1027.82
2019-03-20T05:55:10.068Z,1027.77
2019-03-20T05:56:10.056Z,1027.79
2019-03-20T05:57:12.429Z,1027.76
2019-03-20T05:58:10.043Z,1027.78
2019-03-20T05:59:10.029Z,1027.75
2019-03-20T06:00:10.016Z,1027.77
2019-03-20T06:01:09.999Z,1027.78
2019-03-20T06:02:09.990Z,1027.77
2019-03-20T06:03:09.976Z,1027.75
2019-03-20T06:04:09.966Z,1027.78
2019-03-20T06:05:09.957Z,1027.78
2019-03-20T06:06:09.945Z,1027.79
2019-03-20T06:07:20.876Z,1027.75
2019-03-20T06:08:09.983Z,1027.75
2019-03-20T06:09:09.910Z,1027.77
2019-03-20T06:10:09.900Z,1027.80
2019-03-20T06:11:09.894Z,1027.76
2019-03-20T06:12:09.877Z,1027.80
2019-03-20T06:13:09.865Z,1027.79
2019-03-20T06:14:09.857Z,1027.80
2019-03-20T06:15:09.847Z,1027.83
2019-03-20T06:16:09.833Z,1027.80
2019-03-20T06:17:09.858Z,1027.79
2019-03-20T06:18:09.830Z,1027.82
2019-03-20T06:19:09.800Z,1027.82
2019-03-20T06:20:09.790Z,1027.86
2019-03-20T06:21:09.777Z,1027.90
2019-03-20T06:22:09.766Z,1027.91
2019-03-20T06:23:11.193Z,1027.92
2019-03-20T06:24:09.746Z,1027.95
2019-03-20T06:25:09.735Z,1027.94
2019-03-20T06:26:09.724Z,1027.96
2019-03-20T06:27:09.713Z,1027.94
2019-03-20T06:28:09.702Z,1027.95
2019-03-20T06:29:09.694Z,1028.00
2019-03-20T06:30:09.680Z,1028.01
2019-03-20T06:31:09.669Z,1028.06
2019-03-20T06:32:09.657Z,1028.06
2019-03-20T06:33:09.656Z,1028.08
2019-03-20T06:34:09.634Z,1028.07
2019-03-20T06:35:09.626Z,1028.11
2019-03-20T06:36:09.614Z,1028.14
2019-03-20T06:37:09.606Z,1028.15
2019-03-20T06:38:09.598Z,1028.15
2019-03-20T06:39:09.583Z,1028.11
2019-03-20T06:40:09.572Z,1028.12
2019-03-20T06:41:09.564Z,1028.15
2019-03-20T06:42:09.551Z,1028.13
2019-03-20T06:43:09.557Z,1028.23
2019-03-20T06:44:09.533Z,1028.20
2019-03-20T06:45:09.524Z,1028.23
2019-03-20T06:46:09.516Z,1028.29
2019-03-20T06:47:09.509Z,1028.24
2019-03-20T06:48:09.498Z,1028.29
2019-03-20T06:49:09.487Z,1028.28
2019-03-20T06:50:09.478Z,1028.26
2019-03-20T06:51:09.468Z,1028.34
2019-03-20T06:52:09.463Z,1028.32
2019-03-20T06:53:09.454Z,1028.29
2019-03-20T06:54:09.445Z,1028.30
2019-03-20T06:55:09.436Z,1028.32
2019-03-20T06:56:09.429Z,1028.36
2019-03-20T06:57:09.422Z,1028.35
2019-03-20T06:58:09.411Z,1028.38
2019-03-20T06:59:09.405Z,1028.40
2019-03-20T07:00:09.397Z,1028.34
2019-03-20T07:01:09.393Z,1028.34
2019-03-20T07:02:09.382Z,1028.39
2019-03-20T07:03:09.381Z,1028.37
2019-03-20T07:04:09.369Z,1028.33
2019-03-20T07:05:09.367Z,1028.37
2019-03-20T07:06:09.356Z,1028.32
2019-03-20T07:07:30.359Z,1028.31
2019-03-20T07:08:09.346Z,1028.35
2019-03-20T07:09:09.337Z,1028.34
2019-03-20T07:10:09.331Z,1028.28
2019-03-20T07:11:09.341Z,1028.33
2019-03-20T07:12:09.328Z,1028.29
2019-03-20T07:13:09.314Z,1028.27
2019-03-20T07:14:09.306Z,1028.29
2019-03-20T07:15:09.309Z,1028.29
2019-03-20T07:16:09.297Z,1028.27
2019-03-20T07:17:09.290Z,1028.35
2019-03-20T07:18:09.293Z,1028.34
2019-03-20T07:19:09.276Z,1028.34
2019-03-20T07:20:09.272Z,1028.35
2019-03-20T07:21:09.269Z,1028.38
2019-03-20T07:22:09.259Z,1028.37
2019-03-20T07:23:09.252Z,1028.39
2019-03-20T07:24:09.258Z,1028.40
2019-03-20T07:25:09.238Z,1028.39
2019-03-20T07:26:09.231Z,1028.41
2019-03-20T07:27:09.228Z,1028.41
2019-03-20T07:28:09.222Z,1028.40
2019-03-20T07:29:09.212Z,1028.39
2019-03-20T07:30:09.207Z,1028.38
2019-03-20T07:31:15.174Z,1028.40
2019-03-20T07:32:09.191Z,1028.36
2019-03-20T07:33:09.253Z,1028.37
2019-03-20T07:34:09.177Z,1028.36
2019-03-20T07:35:09.178Z,1028.37
2019-03-20T07:36:09.212Z,1028.34
2019-03-20T07:37:09.156Z,1028.33
2019-03-20T07:38:10.207Z,1028.32
2019-03-20T07:39:09.142Z,1028.32
2019-03-20T07:40:09.133Z,1028.35
2019-03-20T07:41:09.128Z,1028.34
2019-03-20T07:42:09.120Z,1028.34
2019-03-20T07:43:09.486Z,1028.31
2019-03-20T07:44:09.102Z,1028.33
2019-03-20T07:45:09.096Z,1028.36
2019-03-20T07:46:09.132Z,1028.35
2019-03-20T07:47:09.082Z,1028.39
2019-03-20T07:48:09.080Z,1028.35
2019-03-20T07:49:09.110Z,1028.37
2019-03-20T07:50:09.057Z,1028.40
2019-03-20T07:51:09.050Z,1028.39
2019-03-20T07:52:09.071Z,1028.42
2019-03-20T07:53:09.037Z,1028.43
2019-03-20T07:54:09.024Z,1028.42
2019-03-20T07:55:09.021Z,1028.46
2019-03-20T07:56:09.014Z,1028.44
2019-03-20T07:57:09.000Z,1028.43
2019-03-20T07:58:08.997Z,1028.44
2019-03-20T07:59:08.985Z,1028.41
2019-03-20T08:00:08.990Z,1028.44
2019-03-20T08:01:08.972Z,1028.46
2019-03-20T08:02:08.975Z,1028.52
2019-03-20T08:03:08.969Z,1028.54
2019-03-20T08:04:08.947Z,1028.51
2019-03-20T08:05:08.941Z,1028.49
2019-03-20T08:06:08.932Z,1028.49
2019-03-20T08:07:08.923Z,1028.51
2019-03-20T08:08:08.917Z,1028.55
2019-03-20T08:09:08.916Z,1028.56
2019-03-20T08:10:08.903Z,1028.58
2019-03-20T08:11:08.893Z,1028.56
2019-03-20T08:12:08.883Z,1028.51
2019-03-20T08:13:08.874Z,1028.52
2019-03-20T08:14:08.873Z,1028.53
2019-03-20T08:15:08.870Z,1028.57
2019-03-20T08:16:08.855Z,1028.56
2019-03-20T08:17:08.841Z,1028.54
2019-03-20T08:18:08.839Z,1028.59
2019-03-20T08:19:08.829Z,1028.59
2019-03-20T08:20:08.889Z,1028.57
2019-03-20T08:21:08.874Z,1028.56
2019-03-20T08:22:08.805Z,1028.59
2019-03-20T08:23:08.798Z,1028.58
2019-03-20T08:24:08.820Z,1028.55
2019-03-20T08:25:08.870Z,1028.60
2019-03-20T08:26:08.772Z,1028.57
2019-03-20T08:27:08.773Z,1028.59
2019-03-20T08:28:09.539Z,1028.58
2019-03-20T08:29:08.752Z,1028.58
2019-03-20T08:30:08.741Z,1028.63
2019-03-20T08:31:08.733Z,1028.61
2019-03-20T08:32:08.745Z,1028.62
2019-03-20T08:33:08.720Z,1028.59
2019-03-20T08:34:08.733Z,1028.60
2019-03-20T08:35:08.704Z,1028.58
2019-03-20T08:36:08.695Z,1028.60
2019-03-20T08:37:08.686Z,1028.61
2019-03-20T08:38:17.754Z,1028.58
2019-03-20T08:39:08.675Z,1028.65
2019-03-20T08:40:08.741Z,1028.63
2019-03-20T08:41:08.657Z,1028.64
2019-03-20T08:42:08.660Z,1028.60
2019-03-20T08:43:08.643Z,1028.58
2019-03-20T08:44:08.832Z,1028.64
2019-03-20T08:45:08.623Z,1028.65
2019-03-20T08:46:08.976Z,1028.60
2019-03-20T08:47:08.612Z,1028.62
2019-03-20T08:48:08.601Z,1028.59
2019-03-20T08:49:08.595Z,1028.66
2019-03-20T08:50:08.588Z,1028.61
2019-03-20T08:51:08.580Z,1028.61
2019-03-20T08:52:08.573Z,1028.54
2019-03-20T08:53:08.597Z,1028.58
2019-03-20T08:54:08.564Z,1028.58
2019-03-20T08:55:08.744Z,1028.49
2019-03-20T08:56:08.542Z,1028.53
2019-03-20T08:57:08.533Z,1028.60
2019-03-20T08:58:08.531Z,1028.57
2019-03-20T08:59:08.519Z,1028.59
2019-03-20T09:00:08.508Z,1028.61
2019-03-20T09:01:08.507Z,1028.65
2019-03-20T09:02:08.496Z,1028.66
2019-03-20T09:03:08.496Z,1028.69
2019-03-20T09:04:08.485Z,1028.65
2019-03-20T09:05:08.478Z,1028.66
2019-03-20T09:06:08.468Z,1028.68
2019-03-20T09:07:08.459Z,1028.73
2019-03-20T09:08:08.450Z,1028.72
2019-03-20T09:09:08.458Z,1028.71
2019-03-20T09:10:08.438Z,1028.77
2019-03-20T09:11:08.431Z,1028.76
2019-03-20T09:12:08.423Z,1028.78
2019-03-20T09:13:08.438Z,1028.81
2019-03-20T09:14:08.421Z,1028.80
2019-03-20T09:15:08.403Z,1028.77
2019-03-20T09:16:08.393Z,1028.82
2019-03-20T09:17:08.389Z,1028.81
2019-03-20T09:18:08.380Z,1028.81
2019-03-20T09:19:08.372Z,1028.81
2019-03-20T09:20:08.387Z,1028.86
2019-03-20T09:21:08.362Z,1028.84
2019-03-20T09:22:08.354Z,1028.85
2019-03-20T09:23:08.342Z,1028.91
2019-03-20T09:24:08.340Z,1028.88
2019-03-20T09:25:08.331Z,1028.90
2019-03-20T09:26:08.325Z,1028.89
2019-03-20T09:27:08.317Z,1028.88
2019-03-20T09:28:08.315Z,1028.90
2019-03-20T09:29:18.212Z,1028.87
2019-03-20T09:30:08.296Z,1028.87
2019-03-20T09:31:08.297Z,1028.88
2019-03-20T09:32:08.280Z,1028.93
2019-03-20T09:33:08.277Z,1028.96
2019-03-20T09:34:08.265Z,1028.90
2019-03-20T09:35:08.261Z,1028.86
2019-03-20T09:36:08.260Z,1028.94
2019-03-20T09:37:08.249Z,1028.92
2019-03-20T09:38:08.242Z,1028.81
2019-03-20T09:39:08.234Z,1028.90
2019-03-20T09:40:08.229Z,1028.83
2019-03-20T09:41:08.222Z,1028.89
2019-03-20T09:42:08.212Z,1028.94
2019-03-20T09:43:08.213Z,1028.89
2019-03-20T09:44:08.200Z,1028.90
2019-03-20T09:45:08.193Z,1028.90
2019-03-20T09:46:08.187Z,1028.91
2019-03-20T09:47:08.180Z,1028.87
2019-03-20T09:48:08.174Z,1028.91
2019-03-20T09:49:08.168Z,1028.85
2019-03-20T09:50:08.159Z,1028.86
2019-03-20T09:51:08.152Z,1028.85
2019-03-20T09:52:08.149Z,1028.89
2019-03-20T09:53:08.139Z,1028.90
2019-03-20T09:54:08.133Z,1028.85
2019-03-20T09:55:08.128Z,1028.83
2019-03-20T09:56:08.119Z,1028.85
2019-03-20T09:57:08.113Z,1028.83
2019-03-20T09:58:11.772Z,1028.86
2019-03-20T09:59:08.102Z,1028.85
2019-03-20T10:00:08.096Z,1028.79
2019-03-20T10:01:08.087Z,1028.80
2019-03-20T10:02:08.084Z,1028.75
2019-03-20T10:03:08.076Z,1028.76
2019-03-20T10:04:08.068Z,1028.74
2019-03-20T10:05:08.062Z,1028.68
2019-03-20T10:06:08.057Z,1028.70
2019-03-20T10:07:08.052Z,1028.71
2019-03-20T10:08:08.044Z,1028.69
2019-03-20T10:09:08.038Z,1028.65
2019-03-20T10:10:08.033Z,1028.68
2019-03-20T10:11:08.031Z,1028.65
2019-03-20T10:12:08.042Z,1028.64
2019-03-20T10:13:08.013Z,1028.58
2019-03-20T10:14:08.007Z,1028.55
2019-03-20T10:15:08.002Z,1028.54
2019-03-20T10:16:07.997Z,1028.56
2019-03-20T10:17:07.989Z,1028.51
2019-03-20T10:18:07.986Z,1028.50
2019-03-20T10:19:07.978Z,1028.43
2019-03-20T10:20:07.971Z,1028.40
2019-03-20T10:21:07.968Z,1028.44
2019-03-20T10:22:07.962Z,1028.41
2019-03-20T10:23:07.956Z,1028.47
2019-03-20T10:24:07.950Z,1028.49
2019-03-20T10:25:07.944Z,1028.46
2019-03-20T10:26:07.937Z,1028.42
2019-03-20T10:27:07.930Z,1028.45
2019-03-20T10:28:07.923Z,1028.47
2019-03-20T10:29:07.917Z,1028.53
2019-03-20T10:30:07.912Z,1028.47
2019-03-20T10:31:07.907Z,1028.50
2019-03-20T10:32:07.904Z,1028.49
2019-03-20T10:33:07.896Z,1028.47
2019-03-20T10:34:07.890Z,1028.49
2019-03-20T10:35:07.883Z,1028.51
2019-03-20T10:36:07.878Z,1028.50
2019-03-20T10:37:07.869Z,1028.51
2019-03-20T10:38:07.875Z,1028.51
2019-03-20T10:39:07.877Z,1028.53
2019-03-20T10:40:07.856Z,1028.52
2019-03-20T10:41:07.848Z,1028.53
2019-03-20T10:42:07.842Z,1028.55
2019-03-20T10:43:07.838Z,1028.57
2019-03-20T10:44:07.829Z,1028.56
2019-03-20T10:45:07.826Z,1028.55
2019-03-20T10:46:07.820Z,1028.60
2019-03-20T10:47:07.816Z,1028.63
2019-03-20T10:48:07.807Z,1028.61
2019-03-20T10:49:07.806Z,1028.60
2019-03-20T10:50:07.796Z,1028.62
2019-03-20T10:51:07.791Z,1028.66
2019-03-20T10:52:07.784Z,1028.60
2019-03-20T10:53:07.780Z,1028.63
2019-03-20T10:54:07.778Z,1028.62
2019-03-20T10:55:07.770Z,1028.69
2019-03-20T10:56:07.767Z,1028.63
2019-03-20T10:57:07.758Z,1028.68
2019-03-20T10:58:07.754Z,1028.53
2019-03-20T10:59:07.747Z,1028.63
2019-03-20T11:00:07.740Z,1028.62
2019-03-20T11:01:07.741Z,1028.62
2019-03-20T11:02:07.730Z,1028.56
2019-03-20T11:03:07.726Z,1028.62
2019-03-20T11:04:07.740Z,1028.53
2019-03-20T11:05:07.714Z,1028.54
2019-03-20T11:06:07.717Z,1028.61
2019-03-20T11:07:07.704Z,1028.57
2019-03-20T11:08:07.710Z,1028.61
2019-03-20T11:09:17.751Z,1028.60
2019-03-20T11:10:07.699Z,1028.59
2019-03-20T11:11:07.696Z,1028.53
2019-03-20T11:12:07.677Z,1028.56
2019-03-20T11:13:07.672Z,1028.53
2019-03-20T11:14:07.672Z,1028.51
2019-03-20T11:15:07.677Z,1028.48
2019-03-20T11:16:07.659Z,1028.41
2019-03-20T11:17:07.656Z,1028.41
2019-03-20T11:18:07.649Z,1028.46
2019-03-20T11:19:07.650Z,1028.49
2019-03-20T11:20:07.638Z,1028.47
2019-03-20T11:21:07.640Z,1028.45
2019-03-20T11:22:18.351Z,1028.47
2019-03-20T11:23:07.627Z,1028.49
2019-03-20T11:24:07.622Z,1028.47
2019-03-20T11:25:07.617Z,1028.50
2019-03-20T11:26:07.614Z,1028.52
2019-03-20T11:27:07.612Z,1028.51
2019-03-20T11:28:07.604Z,1028.55
2019-03-20T11:29:07.600Z,1028.51
2019-03-20T11:30:07.597Z,1028.43
2019-03-20T11:31:07.595Z,1028.47
2019-03-20T11:32:07.590Z,1028.41
2019-03-20T11:33:07.582Z,1028.41
2019-03-20T11:34:07.578Z,1028.47
2019-03-20T11:35:07.573Z,1028.33
2019-03-20T11:36:07.568Z,1028.34
2019-03-20T11:37:07.566Z,1028.34
2019-03-20T11:38:07.563Z,1028.33
2019-03-20T11:39:07.565Z,1028.31
2019-03-20T11:40:07.555Z,1028.43
2019-03-20T11:41:07.550Z,1028.41
2019-03-20T11:42:07.553Z,1028.42
2019-03-20T11:43:07.542Z,1028.42
2019-03-20T11:44:07.535Z,1028.41
2019-03-20T11:45:07.532Z,1028.44
2019-03-20T11:46:07.529Z,1028.40
2019-03-20T11:47:07.525Z,1028.40
2019-03-20T11:48:07.522Z,1028.45
2019-03-20T11:49:07.518Z,1028.38
2019-03-20T11:50:07.551Z,1028.35
2019-03-20T11:51:07.509Z,1028.33
2019-03-20T11:52:07.511Z,1028.33
2019-03-20T11:53:07.500Z,1028.31
2019-03-20T11:54:07.496Z,1028.31
2019-03-20T11:55:07.501Z,1028.36
2019-03-20T11:56:07.490Z,1028.33
2019-03-20T11:57:07.487Z,1028.40
2019-03-20T11:58:07.489Z,1028.38
2019-03-20T11:59:07.480Z,1028.42
2019-03-20T12:00:07.475Z,1028.40
2019-03-20T12:01:07.471Z,1028.38
2019-03-20T12:02:07.467Z,1028.38
2019-03-20T12:03:07.465Z,1028.36
2019-03-20T12:04:07.459Z,1028.32
2019-03-20T12:05:07.457Z,1028.29